Time;durP1;ratioP1;P1;durP2;ratioP2;P2;SDS_P1;SDS_P2;PMS_P1;PMS_P2;Temp;Humidity;BMP_temperature;BMP_pressure;BME280_temperature;BME280_humidity;BME280_pressure;Samples;Min_cycle;Max_cycle;Signal;HPM_P1;HPM_P2
2022/06/25 00:01:54;;;;;;;2.43;1.10;;;20.30;99.90;;;;;;5014771;28;21018;-76
2022/06/25 00:07:04;;;;;;;2.20;1.40;;;20.30;99.90;;;;;;4996739;28;20210;-76
2022/06/25 00:09:30;;;;;;;2.13;1.27;;;20.40;99.90;;;;;;5013102;28;20612;-76
2022/06/25 00:14:40;;;;;;;3.50;1.37;;;20.30;99.90;;;;;;5012977;28;20213;-76
2022/06/25 00:17:06;;;;;;;1.90;1.40;;;20.30;99.90;;;;;;5014050;28;20581;-76
2022/06/25 00:19:32;;;;;;;1.90;1.10;;;20.30;99.90;;;;;;5014042;28;20170;-76
2022/06/25 00:21:58;;;;;;;2.43;1.33;;;20.30;99.90;;;;;;4996024;28;20262;-76
2022/06/25 00:24:23;;;;;;;2.00;1.23;;;20.30;99.90;;;;;;5013308;28;20636;-76
2022/06/25 00:26:49;;;;;;;3.03;1.07;;;20.30;99.90;;;;;;5012500;28;20190;-76
2022/06/25 00:29:15;;;;;;;1.70;1.33;;;20.30;99.90;;;;;;5013966;28;20179;-76
2022/06/25 00:31:42;;;;;;;6.70;2.20;;;20.30;99.90;;;;;;5011968;28;21012;-76
2022/06/25 00:34:08;;;;;;;1.97;1.43;;;20.30;99.90;;;;;;5011901;28;20597;-76
2022/06/25 00:36:33;;;;;;;2.77;1.43;;;20.30;99.90;;;;;;4996165;28;20584;-76
2022/06/25 00:38:59;;;;;;;3.00;1.43;;;20.20;99.90;;;;;;5016256;28;20202;-76
2022/06/25 00:41:25;;;;;;;5.97;1.67;;;20.20;99.90;;;;;;5011843;28;20167;-76
2022/06/25 00:43:51;;;;;;;2.23;1.43;;;20.30;99.90;;;;;;5012634;28;20261;-76
2022/06/25 00:46:17;;;;;;;2.77;1.33;;;20.30;99.90;;;;;;4995689;28;20700;-76
2022/06/25 00:48:43;;;;;;;2.03;1.67;;;20.30;99.90;;;;;;5013700;28;21055;-76
2022/06/25 00:51:12;;;;;;;3.47;1.80;;;20.30;99.90;;;;;;5011857;28;20608;-76
2022/06/25 00:53:42;;;;;;;2.33;1.57;;;20.30;99.90;;;;;;5012434;28;20202;-76
2022/06/25 00:56:09;;;;;;;2.30;1.60;;;20.30;99.90;;;;;;4995792;28;20664;-76
2022/06/25 00:58:38;;;;;;;3.60;2.23;;;20.30;99.90;;;;;;4995580;28;20687;-76
2022/06/25 01:01:05;;;;;;;2.40;2.20;;;20.30;99.90;;;;;;4995169;28;21159;-76
2022/06/25 01:03:31;;;;;;;2.63;2.33;;;20.20;99.90;;;;;;5011727;28;20573;-76
2022/06/25 01:05:57;;;;;;;1.93;1.40;;;20.30;99.90;;;;;;4995501;28;20570;-76
2022/06/25 01:08:23;;;;;;;2.30;1.83;;;20.30;99.90;;;;;;5013261;28;20758;-76
2022/06/25 01:10:49;;;;;;;2.60;1.70;;;20.20;99.90;;;;;;5011315;28;20661;-76
2022/06/25 01:13:18;;;;;;;2.80;1.90;;;20.20;99.90;;;;;;4995649;28;20623;-76
2022/06/25 01:15:44;;;;;;;2.23;1.70;;;20.30;99.90;;;;;;4999768;28;20636;-76
2022/06/25 01:18:11;;;;;;;2.77;1.70;;;20.20;99.90;;;;;;5012317;28;20601;-75
2022/06/25 01:20:37;;;;;;;2.87;2.17;;;20.20;99.90;;;;;;5012275;28;21027;-75
2022/06/25 01:23:03;;;;;;;3.77;1.47;;;20.10;99.90;;;;;;5011698;28;20700;-76
2022/06/25 01:25:36;;;;;;;3.53;1.90;;;20.20;99.90;;;;;;4995300;28;20685;-76
2022/06/25 01:28:03;;;;;;;2.10;1.73;;;20.10;99.90;;;;;;5011738;28;20285;-75
2022/06/25 01:30:29;;;;;;;2.37;1.63;;;20.10;99.90;;;;;;5010804;28;20580;-76
2022/06/25 01:32:55;;;;;;;3.07;2.37;;;20.10;99.90;;;;;;4995081;28;20636;-76
2022/06/25 01:35:21;;;;;;;1.60;1.10;;;20.10;99.90;;;;;;5011149;28;20977;-76
2022/06/25 01:37:47;;;;;;;2.50;1.57;;;20.10;99.90;;;;;;5011143;28;20619;-76
2022/06/25 01:40:13;;;;;;;1.93;1.47;;;20.10;99.90;;;;;;4994573;28;20597;-76
2022/06/25 01:45:35;;;;;;;2.37;1.20;;;20.10;99.90;;;;;;5012595;28;20193;-76
2022/06/25 01:48:04;;;;;;;2.00;1.40;;;20.10;99.90;;;;;;5011488;28;20712;-76
2022/06/25 01:50:30;;;;;;;2.33;1.30;;;20.10;99.90;;;;;;5010808;28;20609;-76
2022/06/25 01:52:57;;;;;;;2.03;1.50;;;20.10;99.90;;;;;;5015813;28;20569;-76
2022/06/25 01:55:23;;;;;;;1.50;1.20;;;20.10;99.90;;;;;;4994901;28;20647;-76
2022/06/25 01:57:50;;;;;;;4.97;1.33;;;20.10;99.90;;;;;;5011203;28;20625;-76
2022/06/25 02:00:20;;;;;;;2.53;1.53;;;20.10;99.90;;;;;;5010703;28;21139;-76
2022/06/25 02:02:53;;;;;;;1.80;1.37;;;20.10;99.90;;;;;;5011260;28;20676;-76
2022/06/25 02:08:10;;;;;;;3.37;1.50;;;20.10;99.90;;;;;;5011054;28;20621;-75
2022/06/25 02:10:36;;;;;;;2.10;1.10;;;20.10;99.90;;;;;;5011407;28;20664;-75
2022/06/25 02:13:03;;;;;;;3.10;1.20;;;20.10;99.90;;;;;;4994683;28;20612;-76
2022/06/25 02:15:29;;;;;;;2.50;1.30;;;20.10;99.90;;;;;;5010838;28;20631;-75
2022/06/25 02:17:55;;;;;;;3.00;1.50;;;20.10;99.90;;;;;;4994357;28;20621;-76
2022/06/25 02:20:21;;;;;;;2.13;1.27;;;20.10;99.90;;;;;;4994324;28;20573;-75
2022/06/25 02:22:49;;;;;;;4.53;1.13;;;20.10;99.90;;;;;;5010059;28;20679;-76
2022/06/25 02:25:15;;;;;;;2.00;1.50;;;20.10;99.90;;;;;;5011920;28;20672;-75
2022/06/25 02:27:42;;;;;;;2.63;1.30;;;20.10;99.90;;;;;;5011955;28;21047;-76
2022/06/25 02:30:08;;;;;;;2.50;1.10;;;20.00;99.90;;;;;;5014209;28;20180;-75
2022/06/25 02:32:34;;;;;;;2.57;1.53;;;20.00;99.90;;;;;;5010274;28;20572;-76
2022/06/25 02:35:00;;;;;;;2.23;1.70;;;20.00;99.90;;;;;;5010649;28;20637;-75
2022/06/25 02:37:27;;;;;;;3.40;1.47;;;20.00;99.90;;;;;;5010521;28;20616;-75
2022/06/25 02:39:54;;;;;;;2.47;1.40;;;20.00;99.90;;;;;;4994109;28;20569;-75
2022/06/25 02:42:20;;;;;;;3.90;1.33;;;20.00;99.90;;;;;;5009825;28;20650;-75
2022/06/25 02:44:46;;;;;;;2.03;1.20;;;20.00;99.90;;;;;;5010373;28;20580;-75
2022/06/25 02:47:13;;;;;;;2.37;1.30;;;20.00;99.90;;;;;;5010171;28;20194;-75
2022/06/25 02:49:56;;;;;;;3.30;1.40;;;20.00;99.90;;;;;;5010163;28;20577;-75
2022/06/25 02:52:22;;;;;;;3.40;1.87;;;20.00;99.90;;;;;;5009989;28;21186;-76
2022/06/25 02:54:49;;;;;;;1.83;1.00;;;20.00;99.90;;;;;;5010388;28;20647;-75
2022/06/25 03:00:01;;;;;;;2.23;1.37;;;19.90;99.90;;;;;;4993547;28;20585;-75
2022/06/25 03:02:27;;;;;;;3.40;1.63;;;19.90;99.90;;;;;;5009942;28;20562;-75
2022/06/25 03:04:54;;;;;;;3.27;1.50;;;19.90;99.90;;;;;;5011015;28;20596;-75
2022/06/25 03:07:20;;;;;;;1.60;1.30;;;19.90;99.90;;;;;;5013084;28;20699;-76
2022/06/25 03:09:46;;;;;;;2.67;1.03;;;19.90;99.90;;;;;;4993770;28;20597;-76
2022/06/25 03:12:13;;;;;;;2.50;1.33;;;19.80;99.90;;;;;;5009629;28;20587;-76
2022/06/25 03:14:44;;;;;;;3.27;1.40;;;19.80;99.90;;;;;;5010326;28;20637;-76
2022/06/25 03:17:10;;;;;;;3.70;1.50;;;19.80;99.90;;;;;;5011082;28;20590;-76
2022/06/25 03:20:02;;;;;;;5.17;1.40;;;19.80;99.90;;;;;;5002697;28;20634;-76
2022/06/25 03:22:34;;;;;;;1.93;1.10;;;19.80;99.90;;;;;;5010153;28;20554;-77
2022/06/25 03:25:00;;;;;;;1.90;1.10;;;19.70;99.90;;;;;;5013607;28;20581;-76
2022/06/25 03:27:26;;;;;;;1.60;1.10;;;19.70;99.90;;;;;;5011676;28;20704;-76
2022/06/25 03:30:01;;;;;;;3.30;1.13;;;19.70;99.90;;;;;;5011887;28;20616;-76
2022/06/25 03:32:27;;;;;;;1.73;1.20;;;19.70;99.90;;;;;;5009824;28;20926;-76
2022/06/25 03:35:12;;;;;;;5.43;1.20;;;19.70;99.90;;;;;;5011453;28;20708;-76
2022/06/25 03:37:50;;;;;;;2.13;1.23;;;19.70;99.90;;;;;;4993754;28;20608;-77
2022/06/25 03:40:17;;;;;;;3.13;1.47;;;19.70;99.90;;;;;;5009972;28;20575;-76
2022/06/25 03:42:44;;;;;;;1.60;0.90;;;19.70;99.90;;;;;;5014976;28;20573;-76
2022/06/25 03:45:12;;;;;;;1.90;1.10;;;19.70;99.90;;;;;;5010121;28;20588;-76
2022/06/25 03:47:38;;;;;;;1.70;1.10;;;19.70;99.90;;;;;;5009754;28;20601;-76
2022/06/25 03:50:07;;;;;;;2.30;1.37;;;19.70;99.90;;;;;;5009557;28;20612;-76
2022/06/25 03:52:34;;;;;;;2.20;1.37;;;19.60;99.90;;;;;;5009494;28;20627;-76
2022/06/25 03:54:59;;;;;;;3.30;1.40;;;19.70;99.90;;;;;;5009936;28;21184;-76
2022/06/25 03:57:25;;;;;;;3.50;1.40;;;19.70;99.90;;;;;;5009571;28;20613;-76
2022/06/25 04:00:17;;;;;;;3.50;1.20;;;19.70;99.90;;;;;;4998030;28;20166;-76
2022/06/25 04:02:51;;;;;;;2.50;1.27;;;19.70;99.90;;;;;;5013615;28;20911;-76
2022/06/25 04:05:37;;;;;;;1.83;1.57;;;19.70;99.90;;;;;;5014235;28;20630;-76
2022/06/25 04:08:34;;;;;;;3.07;1.33;;;19.70;99.90;;;;;;5013240;28;20593;-76
2022/06/25 04:11:02;;;;;;;1.80;1.07;;;19.70;99.90;;;;;;4996316;28;20581;-76
2022/06/25 04:13:29;;;;;;;4.13;1.60;;;19.70;99.90;;;;;;5013232;28;20584;-76
2022/06/25 04:15:56;;;;;;;2.70;1.47;;;19.70;99.90;;;;;;5012994;28;20727;-76
2022/06/25 04:18:22;;;;;;;1.90;1.17;;;19.70;99.90;;;;;;5014077;28;20696;-76
2022/06/25 04:20:48;;;;;;;2.43;1.30;;;19.70;99.90;;;;;;5015589;28;20656;-76
2022/06/25 04:23:14;;;;;;;2.03;1.40;;;19.80;99.90;;;;;;5012929;28;20689;-76
2022/06/25 04:25:41;;;;;;;2.30;1.40;;;19.70;99.90;;;;;;5012816;28;20585;-76
2022/06/25 04:30:54;;;;;;;1.90;1.10;;;19.80;99.90;;;;;;5012162;28;20986;-76
2022/06/25 04:33:20;;;;;;;2.10;1.37;;;19.80;99.90;;;;;;4996385;28;20577;-76
2022/06/25 04:35:56;;;;;;;2.10;1.10;;;19.90;99.90;;;;;;5012834;28;20597;-76
2022/06/25 04:38:39;;;;;;;4.10;1.50;;;19.90;99.90;;;;;;5012466;28;20620;-75
2022/06/25 04:41:05;;;;;;;4.30;1.50;;;20.00;99.90;;;;;;4995703;28;20573;-75
2022/06/25 04:43:31;;;;;;;2.23;1.20;;;20.00;99.90;;;;;;5012658;28;20661;-76
2022/06/25 04:45:57;;;;;;;5.03;1.40;;;20.10;99.90;;;;;;4996233;28;20776;-76
2022/06/25 04:48:26;;;;;;;4.27;1.33;;;20.10;99.90;;;;;;4996819;28;20604;-76
2022/06/25 04:51:16;;;;;;;1.70;1.23;;;20.10;99.90;;;;;;5007140;28;20601;-76
2022/06/25 04:53:56;;;;;;;2.37;1.23;;;20.20;99.90;;;;;;4996290;28;21190;-76
2022/06/25 04:56:36;;;;;;;3.23;1.83;;;20.20;99.90;;;;;;4986383;28;20182;-76
2022/06/25 04:59:03;;;;;;;2.23;1.73;;;20.20;99.90;;;;;;5020709;22;20639;-73
2022/06/25 05:01:47;;;;;;;2.37;1.50;;;20.20;99.90;;;;;;5031025;28;20988;-73
2022/06/25 05:04:13;;;;;;;3.07;1.70;;;20.30;99.90;;;;;;5032051;28;20588;-73
2022/06/25 05:06:39;;;;;;;2.13;1.57;;;20.30;99.90;;;;;;4998481;28;20162;-73
2022/06/25 05:09:05;;;;;;;2.63;1.50;;;20.30;99.90;;;;;;5031595;28;20169;-73
2022/06/25 05:11:31;;;;;;;3.00;1.60;;;20.40;99.90;;;;;;5030703;28;20643;-72
2022/06/25 05:13:57;;;;;;;2.43;1.40;;;20.50;99.90;;;;;;5035520;28;20556;-72
2022/06/25 05:16:22;;;;;;;2.80;1.40;;;20.50;99.90;;;;;;5032660;28;20205;-72
2022/06/25 05:18:49;;;;;;;4.13;1.40;;;20.60;99.90;;;;;;5033202;28;20162;-73
2022/06/25 05:21:15;;;;;;;3.60;1.60;;;20.70;99.90;;;;;;5031993;28;20580;-72
2022/06/25 05:23:42;;;;;;;2.93;1.30;;;20.80;99.90;;;;;;5031488;28;20644;-73
2022/06/25 05:26:08;;;;;;;4.17;1.10;;;20.90;99.90;;;;;;5031758;28;20576;-73
2022/06/25 05:28:34;;;;;;;1.83;0.90;;;21.00;99.90;;;;;;5031469;28;20687;-73
2022/06/25 05:31:00;;;;;;;3.20;1.10;;;21.00;99.90;;;;;;5030668;28;21175;-73
2022/06/25 05:33:26;;;;;;;2.47;1.50;;;21.10;99.90;;;;;;5031368;28;20580;-73
2022/06/25 05:35:53;;;;;;;3.80;1.30;;;21.20;99.90;;;;;;5031166;28;20725;-73
2022/06/25 05:38:19;;;;;;;2.07;1.10;;;21.30;99.90;;;;;;5031031;28;20623;-73
2022/06/25 05:40:45;;;;;;;4.40;1.30;;;21.40;99.90;;;;;;5030119;28;20201;-73
2022/06/25 05:43:11;;;;;;;3.77;1.20;;;21.60;99.90;;;;;;5032339;28;20578;-73
2022/06/25 05:45:37;;;;;;;3.13;1.57;;;21.90;99.90;;;;;;5032530;28;20938;-74
2022/06/25 05:48:03;;;;;;;3.27;1.10;;;22.20;99.90;;;;;;5032317;28;20189;-73
2022/06/25 05:50:29;;;;;;;2.60;1.00;;;22.50;99.90;;;;;;5037855;28;20244;-74
2022/06/25 05:52:55;;;;;;;2.27;1.23;;;23.10;99.90;;;;;;5033983;28;20623;-74
2022/06/25 05:55:22;;;;;;;3.20;1.00;;;23.80;99.90;;;;;;5032526;28;20624;-75
2022/06/25 05:57:48;;;;;;;3.53;1.10;;;24.70;99.90;;;;;;5031021;28;20573;-75
2022/06/25 06:00:15;;;;;;;3.93;2.23;;;25.70;99.90;;;;;;5031585;28;20612;-75
2022/06/25 06:02:41;;;;;;;5.50;1.30;;;26.70;99.90;;;;;;5046990;28;20960;-75
2022/06/25 06:05:08;;;;;;;3.20;1.00;;;27.60;99.90;;;;;;5032154;28;20576;-75
2022/06/25 06:07:33;;;;;;;2.80;0.80;;;28.40;99.90;;;;;;5031786;28;20568;-75
2022/06/25 06:09:59;;;;;;;1.43;0.70;;;29.30;99.90;;;;;;5031447;28;20608;-75
2022/06/25 06:12:25;;;;;;;1.60;0.70;;;30.00;99.90;;;;;;5030251;28;20183;-75
2022/06/25 06:14:51;;;;;;;4.27;1.00;;;30.80;99.90;;;;;;5031829;28;20383;-75
2022/06/25 06:17:17;;;;;;;1.40;0.70;;;31.20;99.90;;;;;;5047116;28;20181;-75
2022/06/25 06:19:42;;;;;;;2.10;0.90;;;31.40;99.90;;;;;;5030305;28;20268;-75
2022/06/25 06:22:08;;;;;;;2.70;1.10;;;31.60;99.90;;;;;;5030754;28;20168;-74
2022/06/25 06:24:34;;;;;;;5.00;0.90;;;31.80;99.90;;;;;;5031410;28;20627;-75
2022/06/25 06:27:01;;;;;;;2.23;0.73;;;32.10;99.90;;;;;;5031254;28;20176;-74
2022/06/25 06:29:28;;;;;;;2.90;0.80;;;32.50;99.90;;;;;;5034307;28;20558;-75
2022/06/25 06:31:54;;;;;;;2.73;0.90;;;32.70;99.90;;;;;;5030886;28;20582;-75
2022/06/25 06:34:20;;;;;;;3.27;0.80;;;32.90;99.90;;;;;;5030315;28;20608;-74
2022/06/25 06:36:46;;;;;;;2.03;0.90;;;33.10;99.90;;;;;;5031280;28;20174;-75
2022/06/25 06:39:12;;;;;;;3.60;0.77;;;33.70;99.90;;;;;;5030273;28;20217;-75
2022/06/25 06:41:38;;;;;;;1.80;0.70;;;34.30;99.90;;;;;;5030813;28;20572;-74
2022/06/25 06:44:04;;;;;;;1.97;0.80;;;35.00;99.90;;;;;;5031459;28;21214;-75
2022/06/25 06:46:30;;;;;;;3.00;0.87;;;35.50;99.90;;;;;;5031386;28;21117;-75
2022/06/25 06:48:57;;;;;;;1.60;0.70;;;36.00;98.30;;;;;;5031226;28;20611;-75
2022/06/25 06:51:23;;;;;;;2.57;0.70;;;36.30;96.60;;;;;;5045847;28;21154;-75
2022/06/25 06:53:48;;;;;;;1.83;0.80;;;36.70;96.30;;;;;;5031515;28;20166;-75
2022/06/25 06:56:15;;;;;;;2.07;0.60;;;37.10;94.90;;;;;;5031268;28;20198;-75
2022/06/25 06:58:40;;;;;;;1.70;0.73;;;37.60;93.30;;;;;;5031370;28;20170;-75
2022/06/25 07:01:06;;;;;;;1.70;0.63;;;37.80;91.40;;;;;;5030486;28;20604;-75
2022/06/25 07:03:32;;;;;;;4.20;0.80;;;38.00;89.70;;;;;;5030434;28;20641;-76
2022/06/25 07:05:58;;;;;;;2.90;0.67;;;38.20;87.40;;;;;;5035066;28;20648;-75
2022/06/25 07:08:24;;;;;;;2.10;0.70;;;38.40;84.90;;;;;;5031510;28;20188;-75
2022/06/25 07:10:49;;;;;;;1.80;0.70;;;38.80;84.60;;;;;;5030348;28;20212;-75
2022/06/25 07:13:16;;;;;;;2.47;0.67;;;39.20;83.20;;;;;;5031132;28;20580;-75
2022/06/25 07:15:41;;;;;;;3.60;0.70;;;39.60;80.60;;;;;;5031081;28;20213;-74
2022/06/25 07:18:07;;;;;;;2.20;0.70;;;39.70;74.00;;;;;;5030922;28;20173;-75
2022/06/25 07:20:33;;;;;;;1.30;0.57;;;39.70;68.40;;;;;;5030359;28;20194;-75
2022/06/25 07:22:59;;;;;;;2.30;0.70;;;39.60;69.30;;;;;;5023020;28;20593;-75
2022/06/25 07:25:25;;;;;;;1.37;0.60;;;39.80;69.80;;;;;;5026282;28;20937;-74
2022/06/25 07:27:51;;;;;;;1.43;0.60;;;40.00;68.80;;;;;;5023317;28;20181;-74
2022/06/25 07:30:17;;;;;;;2.10;0.60;;;40.40;68.40;;;;;;5027591;28;20197;-74
2022/06/25 07:32:43;;;;;;;2.50;0.70;;;40.80;67.10;;;;;;5036672;28;20273;-75
2022/06/25 07:35:09;;;;;;;1.40;0.60;;;41.00;64.80;;;;;;5033585;28;20189;-76
2022/06/25 07:37:34;;;;;;;2.20;0.60;;;41.20;62.70;;;;;;5034900;28;20252;-75
2022/06/25 07:40:01;;;;;;;2.73;0.60;;;41.50;60.70;;;;;;5033587;28;20197;-74
2022/06/25 07:42:29;;;;;;;1.60;0.87;;;41.60;60.10;;;;;;5034881;28;20173;-74
2022/06/25 07:44:55;;;;;;;1.40;0.60;;;41.70;57.90;;;;;;5030917;28;21093;-74
2022/06/25 07:47:21;;;;;;;1.30;0.60;;;41.60;56.40;;;;;;5034388;28;20680;-74
2022/06/25 07:52:31;;;;;;;1.57;0.60;;;41.80;56.10;;;;;;5033963;28;20169;-74
2022/06/25 07:54:57;;;;;;;2.23;0.60;;;41.90;55.30;;;;;;5034353;28;20623;-74
2022/06/25 07:57:23;;;;;;;1.30;0.60;;;41.70;54.10;;;;;;5034427;28;20295;-74
2022/06/25 07:59:48;;;;;;;1.57;0.60;;;41.50;52.70;;;;;;5033703;28;20193;-74
2022/06/25 08:02:14;;;;;;;2.00;0.60;;;41.00;51.80;;;;;;5032598;28;20170;-74
2022/06/25 08:04:40;;;;;;;1.27;0.60;;;41.00;52.30;;;;;;5032945;28;20173;-75
2022/06/25 08:07:06;;;;;;;2.60;0.53;;;41.20;52.30;;;;;;5029766;28;20248;-75
2022/06/25 08:09:34;;;;;;;2.20;0.80;;;41.40;51.80;;;;;;5033733;28;20303;-74
2022/06/25 08:12:00;;;;;;;1.93;0.80;;;41.60;52.10;;;;;;5033274;28;20178;-75
2022/06/25 08:14:26;;;;;;;2.43;0.60;;;42.00;51.20;;;;;;5033173;28;21194;-75
2022/06/25 08:16:52;;;;;;;1.50;0.67;;;42.00;49.80;;;;;;5049420;28;20584;-74
2022/06/25 08:19:18;;;;;;;3.50;0.70;;;41.60;47.10;;;;;;5019382;28;20193;-74
2022/06/25 08:21:44;;;;;;;6.10;0.77;;;41.40;47.60;;;;;;5033150;28;20161;-74
2022/06/25 08:24:09;;;;;;;1.40;0.60;;;41.00;46.70;;;;;;5033989;28;20650;-74
2022/06/25 08:26:35;;;;;;;1.30;0.50;;;40.80;46.30;;;;;;5033794;28;20696;-74
2022/06/25 08:29:01;;;;;;;1.40;0.53;;;40.50;47.00;;;;;;5033631;28;20201;-74
2022/06/25 08:31:28;;;;;;;1.33;0.57;;;40.50;47.80;;;;;;5048301;28;20204;-74
2022/06/25 08:33:53;;;;;;;2.60;0.67;;;40.30;47.20;;;;;;5033938;28;20602;-75
2022/06/25 08:36:19;;;;;;;2.93;0.70;;;40.10;47.10;;;;;;5033626;28;20655;-75
2022/06/25 08:38:45;;;;;;;2.03;0.67;;;40.10;47.20;;;;;;5033816;28;20177;-75
2022/06/25 08:41:11;;;;;;;1.90;0.70;;;40.10;47.30;;;;;;5030803;28;20564;-74
2022/06/25 08:43:36;;;;;;;3.53;0.60;;;40.20;46.80;;;;;;5032703;28;20188;-75
2022/06/25 08:46:03;;;;;;;3.30;0.70;;;39.80;46.30;;;;;;5032943;28;20181;-75
2022/06/25 08:48:33;;;;;;;5.23;1.30;;;39.30;45.70;;;;;;5032394;28;20646;-74
2022/06/25 08:50:59;;;;;;;1.70;0.67;;;38.90;46.10;;;;;;5032662;28;21165;-74
2022/06/25 08:53:31;;;;;;;2.07;0.60;;;38.60;46.50;;;;;;5032241;28;20571;-74
2022/06/25 08:55:57;;;;;;;1.47;0.60;;;38.30;46.10;;;;;;5036795;28;20722;-75
2022/06/25 08:58:23;;;;;;;2.07;0.70;;;38.20;47.00;;;;;;5033186;28;20588;-75
2022/06/25 09:00:49;;;;;;;1.73;0.60;;;38.20;47.10;;;;;;5014421;28;20619;-74
2022/06/25 09:03:15;;;;;;;2.60;0.70;;;37.90;46.70;;;;;;5033273;28;20509;-74
2022/06/25 09:05:42;;;;;;;1.93;0.60;;;37.60;46.60;;;;;;5032046;28;20184;-74
2022/06/25 09:08:11;;;;;;;1.40;0.70;;;37.20;46.60;;;;;;5032995;28;20188;-74
2022/06/25 09:10:38;;;;;;;1.80;0.90;;;36.90;46.80;;;;;;5032290;28;21004;-75
2022/06/25 09:13:06;;;;;;;2.60;0.50;;;36.70;47.00;;;;;;5032931;28;20926;-74
2022/06/25 09:15:37;;;;;;;2.40;0.80;;;36.60;47.50;;;;;;5032843;28;20985;-74
2022/06/25 09:18:07;;;;;;;2.17;0.57;;;36.80;48.70;;;;;;5032730;28;20583;-74
2022/06/25 09:20:34;;;;;;;1.90;0.60;;;37.10;48.60;;;;;;5014295;28;20604;-74
2022/06/25 09:23:05;;;;;;;1.70;0.60;;;37.60;48.80;;;;;;5032643;28;20572;-74
2022/06/25 09:25:33;;;;;;;1.50;0.50;;;37.80;47.80;;;;;;5031604;28;20568;-74
2022/06/25 09:27:59;;;;;;;1.80;0.67;;;37.60;46.50;;;;;;5029651;28;20626;-74
2022/06/25 09:30:30;;;;;;;1.37;0.60;;;37.20;46.10;;;;;;5031543;28;20734;-74
2022/06/25 09:33:00;;;;;;;3.43;0.80;;;37.30;47.20;;;;;;5026965;28;21111;-74
2022/06/25 09:35:33;;;;;;;3.30;0.60;;;37.70;47.80;;;;;;5031185;28;21042;-74
2022/06/25 09:38:05;;;;;;;2.33;0.70;;;38.00;47.40;;;;;;5032486;28;20577;-74
2022/06/25 09:40:32;;;;;;;1.60;0.80;;;38.30;47.30;;;;;;5030143;28;20734;-75
2022/06/25 09:42:59;;;;;;;5.20;0.90;;;38.70;47.50;;;;;;5040981;28;20588;-74
2022/06/25 09:45:26;;;;;;;2.97;0.70;;;39.20;47.50;;;;;;5031939;28;20593;-75
2022/06/25 09:47:55;;;;;;;1.80;0.67;;;39.60;47.00;;;;;;5031338;28;20600;-75
2022/06/25 09:50:20;;;;;;;2.20;0.70;;;40.10;47.10;;;;;;5031442;28;20631;-75
2022/06/25 09:52:52;;;;;;;1.67;0.60;;;40.30;44.80;;;;;;5031593;28;20577;-75
2022/06/25 09:55:19;;;;;;;1.97;0.70;;;40.00;43.40;;;;;;5026460;28;20208;-75
2022/06/25 09:57:46;;;;;;;2.10;0.60;;;39.50;43.00;;;;;;5030571;28;20948;-75
2022/06/25 10:00:17;;;;;;;1.60;0.70;;;38.90;42.70;;;;;;5029829;28;20610;-76
2022/06/25 10:02:46;;;;;;;1.57;0.67;;;38.50;43.20;;;;;;5028146;28;20953;-76
2022/06/25 10:05:12;;;;;;;3.27;0.80;;;38.10;43.90;;;;;;5032055;28;20595;-75
2022/06/25 10:10:26;;;;;;;6.93;0.80;;;38.00;44.60;;;;;;5030913;28;20612;-76
2022/06/25 10:12:52;;;;;;;2.10;0.70;;;37.80;44.60;;;;;;5031913;28;20585;-75
2022/06/25 10:15:20;;;;;;;1.63;0.70;;;37.50;44.40;;;;;;5013416;28;20631;-75
2022/06/25 10:17:48;;;;;;;1.83;0.60;;;37.10;44.50;;;;;;5030401;28;20599;-74
2022/06/25 10:20:16;;;;;;;2.13;0.80;;;36.80;44.30;;;;;;5029969;28;20612;-76
2022/06/25 10:22:45;;;;;;;2.60;2.23;;;36.30;44.30;;;;;;5010015;28;20705;-77
2022/06/25 10:25:13;;;;;;;3.57;1.50;;;35.90;44.30;;;;;;5030065;28;20588;-76
2022/06/25 10:27:46;;;;;;;3.40;1.23;;;35.40;44.70;;;;;;5030154;28;20609;-75
2022/06/25 10:30:14;;;;;;;1.80;0.80;;;34.90;45.40;;;;;;5045133;28;20615;-75
2022/06/25 10:32:46;;;;;;;1.87;0.97;;;34.50;45.40;;;;;;5028933;28;20627;-75
2022/06/25 10:35:30;;;;;;;8.43;0.80;;;34.10;46.10;;;;;;5030210;28;20634;-74
2022/06/25 10:38:05;;;;;;;2.37;0.70;;;33.90;46.90;;;;;;5028353;28;20957;-73
2022/06/25 10:40:33;;;;;;;1.90;0.70;;;33.70;46.90;;;;;;5026050;28;20594;-73
2022/06/25 10:43:16;;;;;;;2.77;0.80;;;33.60;47.60;;;;;;5016661;28;20631;-74
2022/06/25 10:45:46;;;;;;;1.50;0.60;;;33.90;48.60;;;;;;5033870;28;20595;-74
2022/06/25 10:48:13;;;;;;;1.67;0.73;;;34.40;49.00;;;;;;5030071;28;20581;-74
2022/06/25 10:50:43;;;;;;;4.13;0.80;;;35.10;49.50;;;;;;5028100;28;20988;-74
2022/06/25 10:53:09;;;;;;;2.47;0.70;;;35.80;49.50;;;;;;5031453;28;21151;-73
2022/06/25 10:56:15;;;;;;;1.40;0.60;;;36.40;48.20;;;;;;5031772;28;20627;-75
2022/06/25 10:58:43;;;;;;;2.37;0.60;;;36.90;48.40;;;;;;5030598;28;20629;-72
2022/06/25 11:01:19;;;;;;;1.50;0.70;;;37.30;46.20;;;;;;5030646;28;20628;-77
2022/06/25 11:03:45;;;;;;;1.43;0.70;;;36.80;44.60;;;;;;5032457;28;21414;-77
2022/06/25 11:06:18;;;;;;;2.47;0.70;;;36.50;44.00;;;;;;5036396;28;20583;-76
2022/06/25 11:08:45;;;;;;;1.73;0.80;;;36.20;43.80;;;;;;5023849;28;21135;-77
2022/06/25 11:11:11;;;;;;;1.60;0.73;;;35.60;43.80;;;;;;5016030;28;20632;-77
2022/06/25 11:13:41;;;;;;;1.97;0.80;;;34.90;44.40;;;;;;5035438;28;21138;-77
2022/06/25 11:16:15;;;;;;;3.30;0.90;;;34.30;45.00;;;;;;5035173;28;20627;-74
2022/06/25 11:18:54;;;;;;;3.43;1.20;;;33.90;45.50;;;;;;5035106;28;20577;-74
2022/06/25 11:21:32;;;;;;;1.30;0.70;;;33.60;46.30;;;;;;5037409;28;20588;-74
2022/06/25 11:24:11;;;;;;;2.77;0.90;;;33.50;47.30;;;;;;5027358;28;20599;-74
2022/06/25 11:29:26;;;;;;;1.67;0.90;;;33.20;47.30;;;;;;5018668;28;20730;-74
2022/06/25 11:31:53;;;;;;;1.97;1.03;;;32.70;46.80;;;;;;5033993;28;20643;-74
2022/06/25 11:34:21;;;;;;;1.90;0.73;;;32.30;46.80;;;;;;5034167;28;20604;-74
2022/06/25 11:37:06;;;;;;;2.27;0.83;;;32.10;47.60;;;;;;5038233;28;20601;-79
2022/06/25 11:39:34;;;;;;;2.23;0.70;;;31.80;48.30;;;;;;5033196;28;20974;-75
2022/06/25 11:42:00;;;;;;;2.57;1.10;;;31.60;48.80;;;;;;5032376;28;20595;-75
2022/06/25 11:44:27;;;;;;;1.90;1.10;;;31.30;49.20;;;;;;5034677;28;20568;-75
2022/06/25 11:46:53;;;;;;;2.03;0.80;;;31.20;50.00;;;;;;5026571;28;20584;-75
2022/06/25 11:49:22;;;;;;;2.40;1.00;;;31.10;50.30;;;;;;5033865;28;21005;-74
2022/06/25 11:51:50;;;;;;;2.93;1.10;;;30.80;50.00;;;;;;5033297;28;20568;-74
2022/06/25 11:54:20;;;;;;;2.30;1.00;;;30.60;50.10;;;;;;5032617;28;20584;-74
2022/06/25 11:56:55;;;;;;;2.30;1.13;;;30.50;50.70;;;;;;5028011;28;20623;-75
2022/06/25 11:59:36;;;;;;;1.77;0.80;;;30.40;50.90;;;;;;5039000;28;20955;-75
2022/06/25 12:02:07;;;;;;;2.20;0.93;;;30.30;51.20;;;;;;5032548;28;20659;-75
2022/06/25 12:04:49;;;;;;;2.27;0.90;;;30.10;51.10;;;;;;5049768;28;20564;-75
2022/06/25 12:07:21;;;;;;;4.23;0.90;;;30.10;51.60;;;;;;5025087;28;20578;-75
2022/06/25 12:09:48;;;;;;;4.33;1.10;;;30.20;51.60;;;;;;5032480;28;20599;-75
2022/06/25 12:12:17;;;;;;;1.87;1.00;;;30.30;52.20;;;;;;5032682;28;20584;-76
2022/06/25 12:14:43;;;;;;;2.90;0.70;;;30.30;51.30;;;;;;5033932;28;20645;-76
2022/06/25 12:17:10;;;;;;;2.83;0.70;;;30.50;51.50;;;;;;5034040;28;20581;-76
2022/06/25 12:19:48;;;;;;;1.67;0.60;;;30.60;51.40;;;;;;5006399;28;20624;-76
2022/06/25 12:22:25;;;;;;;1.83;0.77;;;30.80;51.60;;;;;;5026877;28;20588;-76
2022/06/25 12:24:56;;;;;;;2.03;0.70;;;31.00;52.00;;;;;;5028869;28;20599;-75
2022/06/25 12:27:25;;;;;;;2.43;1.27;;;31.20;51.60;;;;;;5029850;28;20743;-74
2022/06/25 12:29:55;;;;;;;1.40;0.70;;;31.40;51.60;;;;;;5029702;28;20615;-74
2022/06/25 12:32:38;;;;;;;1.40;0.53;;;31.50;51.00;;;;;;5026607;28;20938;-75
2022/06/25 12:35:15;;;;;;;1.33;0.60;;;31.60;50.60;;;;;;5023918;28;20623;-73
2022/06/25 12:37:41;;;;;;;1.90;0.60;;;31.70;50.30;;;;;;5031449;28;20568;-74
2022/06/25 12:40:08;;;;;;;1.53;0.70;;;31.80;50.30;;;;;;5032476;28;20966;-75
2022/06/25 12:42:34;;;;;;;1.50;0.60;;;31.80;49.90;;;;;;5030067;28;20180;-74
2022/06/25 12:45:00;;;;;;;1.80;0.60;;;31.80;50.30;;;;;;5032224;28;20580;-74
2022/06/25 12:47:40;;;;;;;1.40;0.60;;;31.90;50.20;;;;;;5037205;28;20520;-74
2022/06/25 12:50:07;;;;;;;4.33;0.70;;;31.90;50.90;;;;;;5024383;28;20607;-75
2022/06/25 12:52:38;;;;;;;1.87;0.70;;;32.10;50.50;;;;;;5039072;28;20633;-73
2022/06/25 12:55:06;;;;;;;1.63;0.60;;;32.00;50.00;;;;;;5037708;28;20643;-74
2022/06/25 12:57:37;;;;;;;2.20;0.77;;;32.00;49.80;;;;;;5037090;28;21226;-75
2022/06/25 13:00:21;;;;;;;2.33;0.73;;;31.80;49.60;;;;;;5037019;28;21224;-74
2022/06/25 13:02:47;;;;;;;2.00;0.80;;;31.70;49.70;;;;;;5044426;28;21206;-75
2022/06/25 13:05:14;;;;;;;1.50;0.80;;;31.70;50.00;;;;;;5040598;28;20580;-75
2022/06/25 13:07:42;;;;;;;2.67;1.10;;;31.70;50.10;;;;;;5040505;28;20587;-75
2022/06/25 13:10:12;;;;;;;1.70;1.10;;;31.70;50.00;;;;;;5036233;28;20654;-75
2022/06/25 13:12:38;;;;;;;5.20;2.50;;;31.70;49.40;;;;;;5045667;28;20653;-74
2022/06/25 13:15:06;;;;;;;3.40;1.60;;;31.60;49.40;;;;;;5038663;28;20723;-75
2022/06/25 13:17:32;;;;;;;2.60;1.23;;;31.50;49.80;;;;;;5039266;28;20990;-73
2022/06/25 13:19:58;;;;;;;1.73;0.67;;;31.50;50.00;;;;;;5040705;28;21208;-73